Time;durP1;ratioP1;P1;durP2;ratioP2;P2;SDS_P1;SDS_P2;PMS_P1;PMS_P2;Temp;Humidity;BMP_temperature;BMP_pressure;BME280_temperature;BME280_humidity;BME280_pressure;Samples;Min_cycle;Max_cycle;Signal;HPM_P1;HPM_P2
2023/12/29 00:01:33;;;;;;;;;;;25.90;99.90;;;;;;5113960;28;19907;-71
2023/12/29 00:03:59;;;;;;;;;;;26.40;99.90;;;;;;5113107;28;19949;-65
2023/12/29 00:06:26;;;;;;;;;;;26.80;99.90;;;;;;5113659;28;19908;-65
2023/12/29 00:08:52;;;;;;;;;;;26.90;99.90;;;;;;5113722;28;19908;-65
2023/12/29 00:11:22;;;;;;;;;;;27.20;99.90;;;;;;5113920;28;19908;-72
2023/12/29 00:13:49;;;;;;;;;;;27.20;99.90;;;;;;5114028;28;19914;-72
2023/12/29 00:16:16;;;;;;;;;;;27.30;99.90;;;;;;5095536;28;19916;-65
2023/12/29 00:18:42;;;;;;;;;;;27.30;99.90;;;;;;5113803;28;19908;-67
2023/12/29 00:21:09;;;;;;;;;;;27.40;99.90;;;;;;5113676;28;19908;-65
2023/12/29 00:23:36;;;;;;;;;;;27.60;99.90;;;;;;5113783;28;19953;-65
2023/12/29 00:26:02;;;;;;;;;;;27.80;99.90;;;;;;5113837;28;20365;-71
2023/12/29 00:28:29;;;;;;;;;;;28.00;99.90;;;;;;5113607;28;19915;-66
2023/12/29 00:30:55;;;;;;;;;;;27.80;99.90;;;;;;5113131;28;19907;-66
2023/12/29 00:33:22;;;;;;;;;;;28.00;99.90;;;;;;5113296;28;19912;-64
2023/12/29 00:35:49;;;;;;;;;;;28.10;99.90;;;;;;5113438;28;19916;-66
2023/12/29 00:38:15;;;;;;;;;;;28.00;99.90;;;;;;5113356;28;19908;-65
2023/12/29 00:40:42;;;;;;;;;;;28.20;99.90;;;;;;5113204;28;19912;-65
2023/12/29 00:43:08;;;;;;;;;;;28.20;99.90;;;;;;5113230;28;19908;-64
2023/12/29 00:45:36;;;;;;;;;;;27.90;99.90;;;;;;5113087;28;19908;-67
2023/12/29 00:48:02;;;;;;;;;;;27.70;99.90;;;;;;5113303;28;20049;-73
2023/12/29 00:50:29;;;;;;;;;;;27.30;99.90;;;;;;5113612;28;19908;-71
2023/12/29 00:52:56;;;;;;;;;;;27.20;99.90;;;;;;5113226;28;19908;-69
2023/12/29 00:55:22;;;;;;;;;;;27.10;99.90;;;;;;5113150;28;20012;-65
2023/12/29 00:57:54;;;;;;;;;;;27.10;99.90;;;;;;5112573;28;20106;-65
2023/12/29 01:00:20;;;;;;;;;;;27.10;99.90;;;;;;5113094;28;19907;-69
2023/12/29 01:02:47;;;;;;;;;;;27.00;99.90;;;;;;5113081;28;19927;-66
2023/12/29 01:05:17;;;;;;;;;;;27.10;99.90;;;;;;5113285;28;19939;-64
2023/12/29 01:07:44;;;;;;;;;;;27.20;99.90;;;;;;5113192;28;20352;-67
2023/12/29 01:10:10;;;;;;;;;;;27.20;99.90;;;;;;5113130;28;19908;-67
2023/12/29 01:12:37;;;;;;;;;;;27.10;99.90;;;;;;5112840;28;20409;-67
2023/12/29 01:15:04;;;;;;;;;;;27.30;99.90;;;;;;5112907;28;19927;-65
2023/12/29 01:17:30;;;;;;;;;;;27.30;99.90;;;;;;5112968;28;19912;-72
2023/12/29 01:19:57;;;;;;;;;;;27.70;99.90;;;;;;5113058;28;19907;-66
2023/12/29 01:22:24;;;;;;;;;;;27.90;99.90;;;;;;5112719;28;20387;-65
2023/12/29 01:24:50;;;;;;;;;;;28.20;99.90;;;;;;5112816;28;19908;-67
2023/12/29 01:27:17;;;;;;;;;;;28.40;99.90;;;;;;5113005;28;19908;-69
2023/12/29 01:29:44;;;;;;;;;;;28.40;99.90;;;;;;5112759;28;19908;-68
2023/12/29 01:32:10;;;;;;;;;;;28.40;99.90;;;;;;5112651;28;20404;-69
2023/12/29 01:34:37;;;;;;;;;;;28.30;99.90;;;;;;5112655;28;19923;-68
2023/12/29 01:37:04;;;;;;;;;;;28.30;99.90;;;;;;5112484;28;19908;-64
2023/12/29 01:39:30;;;;;;;;;;;28.40;99.90;;;;;;5112630;28;19934;-71
2023/12/29 01:41:57;;;;;;;;;;;28.20;99.90;;;;;;5112374;28;19912;-64
2023/12/29 01:44:27;;;;;;;;;;;28.40;99.90;;;;;;5112585;28;19916;-72
2023/12/29 01:46:57;;;;;;;;;;;28.50;99.90;;;;;;5095051;28;19943;-69
2023/12/29 01:49:28;;;;;;;;;;;28.70;99.90;;;;;;5112688;28;19908;-72
2023/12/29 01:51:58;;;;;;;;;;;28.60;99.90;;;;;;5112748;28;19914;-72
2023/12/29 01:54:26;;;;;;;;;;;28.80;99.90;;;;;;5112250;28;19927;-73
2023/12/29 01:56:57;;;;;;;;;;;29.00;99.90;;;;;;5111419;28;19916;-73
2023/12/29 01:59:26;;;;;;;;;;;28.90;99.90;;;;;;5116222;28;20002;-73
2023/12/29 02:01:58;;;;;;;;;;;28.80;99.90;;;;;;5116224;28;19908;-72
2023/12/29 02:04:25;;;;;;;;;;;28.50;99.90;;;;;;5116603;28;20276;-73
2023/12/29 02:06:52;;;;;;;;;;;28.40;99.90;;;;;;5116371;28;19912;-73
2023/12/29 02:09:24;;;;;;;;;;;28.50;99.90;;;;;;5116315;28;19914;-72
2023/12/29 02:11:53;;;;;;;;;;;28.50;99.90;;;;;;5115862;28;19914;-71
2023/12/29 02:14:21;;;;;;;;;;;28.50;99.90;;;;;;5116261;28;19998;-77
2023/12/29 02:16:54;;;;;;;;;;;28.60;99.90;;;;;;5097733;28;19918;-73
2023/12/29 02:19:49;;;;;;;;;;;28.70;99.90;;;;;;5116086;28;19908;-79
2023/12/29 02:22:19;;;;;;;;;;;28.60;99.90;;;;;;5115719;28;19908;-76
2023/12/29 02:24:49;;;;;;;;;;;28.50;99.90;;;;;;5116201;28;19991;-78
2023/12/29 02:27:33;;;;;;;;;;;28.60;99.90;;;;;;5115927;28;19947;-81
2023/12/29 02:30:18;;;;;;;;;;;28.50;99.90;;;;;;5114333;28;20391;-81
2023/12/29 02:32:46;;;;;;;;;;;28.50;99.90;;;;;;5115004;28;19914;-82
2023/12/29 02:35:20;;;;;;;;;;;28.60;99.90;;;;;;5115154;28;20383;-80
2023/12/29 02:37:47;;;;;;;;;;;28.50;99.90;;;;;;5110444;28;19915;-80
2023/12/29 02:40:18;;;;;;;;;;;28.60;99.90;;;;;;5115790;28;19907;-81
2023/12/29 02:42:48;;;;;;;;;;;28.60;99.90;;;;;;5098438;28;20249;-81
2023/12/29 02:45:15;;;;;;;;;;;28.40;99.90;;;;;;5116176;28;19999;-80
2023/12/29 02:47:42;;;;;;;;;;;28.20;99.90;;;;;;5114883;28;20010;-80
2023/12/29 02:50:12;;;;;;;;;;;28.00;99.90;;;;;;5095658;28;19907;-80
2023/12/29 02:52:39;;;;;;;;;;;27.80;99.90;;;;;;5078676;28;19923;-80
2023/12/29 02:55:06;;;;;;;;;;;27.80;99.90;;;;;;5113371;28;20379;-80
2023/12/29 02:57:33;;;;;;;;;;;27.60;99.90;;;;;;5113533;28;19912;-79
2023/12/29 03:00:00;;;;;;;;;;;27.40;99.90;;;;;;5113792;28;19947;-83
2023/12/29 03:02:27;;;;;;;;;;;27.40;99.90;;;;;;5078481;28;19935;-80
2023/12/29 03:04:57;;;;;;;;;;;27.50;99.90;;;;;;5114523;28;20390;-78
2023/12/29 03:07:24;;;;;;;;;;;27.50;99.90;;;;;;5117883;28;19907;-79
2023/12/29 03:09:50;;;;;;;;;;;27.60;99.90;;;;;;5127211;28;19917;-74
2023/12/29 03:12:17;;;;;;;;;;;27.50;99.90;;;;;;5124969;28;19935;-65
2023/12/29 03:14:47;;;;;;;;;;;27.50;99.90;;;;;;5119182;28;19922;-79
2023/12/29 03:17:19;;;;;;;;;;;27.60;99.90;;;;;;5097379;28;19915;-69
2023/12/29 03:19:47;;;;;;;;;;;27.60;99.90;;;;;;5114207;28;19908;-81
2023/12/29 03:22:13;;;;;;;;;;;27.60;99.90;;;;;;5096883;28;19981;-81
2023/12/29 03:24:43;;;;;;;;;;;27.50;99.90;;;;;;5115157;28;19963;-80
2023/12/29 03:27:14;;;;;;;;;;;27.30;99.90;;;;;;5120818;28;19908;-80
2023/12/29 03:29:41;;;;;;;;;;;27.40;99.90;;;;;;5130843;28;19908;-78
2023/12/29 03:32:09;;;;;;;;;;;27.30;99.90;;;;;;5127163;28;19914;-70
2023/12/29 03:34:44;;;;;;;;;;;27.20;99.90;;;;;;5115505;28;19927;-78
2023/12/29 03:37:11;;;;;;;;;;;27.20;99.90;;;;;;5115244;28;19907;-81
2023/12/29 03:39:40;;;;;;;;;;;27.30;99.90;;;;;;5115429;28;19919;-74
2023/12/29 03:42:09;;;;;;;;;;;27.40;99.90;;;;;;5114605;28;19915;-81
2023/12/29 03:44:38;;;;;;;;;;;27.50;99.90;;;;;;5114599;28;19908;-80
2023/12/29 03:47:10;;;;;;;;;;;27.30;99.90;;;;;;5114682;28;20276;-82
2023/12/29 03:49:37;;;;;;;;;;;27.30;99.90;;;;;;5113924;28;19907;-80
2023/12/29 03:52:04;;;;;;;;;;;27.20;99.90;;;;;;5114619;28;19915;-80
2023/12/29 03:54:32;;;;;;;;;;;27.20;99.90;;;;;;5095957;28;19919;-74
2023/12/29 03:56:59;;;;;;;;;;;27.40;99.90;;;;;;5114398;28;19915;-69
2023/12/29 03:59:26;;;;;;;;;;;27.50;99.90;;;;;;5114146;28;19950;-71
2023/12/29 04:01:52;;;;;;;;;;;27.50;99.90;;;;;;5114305;28;20390;-77
2023/12/29 04:04:19;;;;;;;;;;;27.50;99.90;;;;;;5114378;28;19908;-76
2023/12/29 04:06:46;;;;;;;;;;;27.30;99.90;;;;;;5114147;28;19912;-75
2023/12/29 04:09:13;;;;;;;;;;;27.30;99.90;;;;;;5114080;28;19915;-73
2023/12/29 04:11:39;;;;;;;;;;;27.40;99.90;;;;;;5114026;28;19914;-77
2023/12/29 04:14:12;;;;;;;;;;;27.40;99.90;;;;;;5114266;28;20305;-80
2023/12/29 04:16:39;;;;;;;;;;;27.40;99.90;;;;;;5113928;28;19915;-78
2023/12/29 04:19:06;;;;;;;;;;;27.50;99.90;;;;;;5114598;28;19908;-79
2023/12/29 04:21:33;;;;;;;;;;;27.40;99.90;;;;;;5113806;28;19943;-79
2023/12/29 04:24:00;;;;;;;;;;;27.20;99.90;;;;;;5114011;28;19912;-76
2023/12/29 04:26:27;;;;;;;;;;;27.00;99.90;;;;;;5113887;28;19908;-76
2023/12/29 04:28:57;;;;;;;;;;;26.90;99.90;;;;;;5113484;28;20312;-81
2023/12/29 04:31:23;;;;;;;;;;;26.80;99.90;;;;;;5113693;28;20380;-78
2023/12/29 04:33:50;;;;;;;;;;;26.60;99.90;;;;;;5113965;28;19907;-80
2023/12/29 04:36:17;;;;;;;;;;;26.50;99.90;;;;;;5113695;28;20101;-78
2023/12/29 04:38:44;;;;;;;;;;;26.40;99.90;;;;;;5113794;28;19912;-78
2023/12/29 04:41:13;;;;;;;;;;;26.30;99.90;;;;;;5113415;28;19908;-79
2023/12/29 04:43:40;;;;;;;;;;;26.30;99.90;;;;;;5095460;28;19918;-79
2023/12/29 04:46:07;;;;;;;;;;;26.30;99.90;;;;;;5113513;28;19911;-82
2023/12/29 04:48:33;;;;;;;;;;;26.10;99.90;;;;;;5112563;28;19953;-77
2023/12/29 04:51:01;;;;;;;;;;;26.10;99.90;;;;;;5095285;28;19908;-79
2023/12/29 04:53:27;;;;;;;;;;;26.10;99.90;;;;;;5113449;28;19950;-77
2023/12/29 04:55:54;;;;;;;;;;;26.10;99.90;;;;;;5094971;28;20367;-79
2023/12/29 04:58:20;;;;;;;;;;;26.10;99.90;;;;;;5113458;28;19911;-78
2023/12/29 05:00:47;;;;;;;;;;;26.10;99.90;;;;;;5113075;28;19915;-80
2023/12/29 05:03:14;;;;;;;;;;;26.30;99.90;;;;;;5113151;28;19908;-78
2023/12/29 05:05:40;;;;;;;;;;;26.90;99.90;;;;;;5113241;28;19960;-79
2023/12/29 05:08:07;;;;;;;;;;;27.90;99.90;;;;;;5113149;28;20284;-79
2023/12/29 05:10:36;;;;;;;;;;;28.80;99.90;;;;;;5113036;28;19908;-81
2023/12/29 05:13:03;;;;;;;;;;;29.30;99.90;;;;;;5113335;28;19923;-79
2023/12/29 05:15:29;;;;;;;;;;;29.30;99.90;;;;;;5113125;28;19915;-80
2023/12/29 05:17:56;;;;;;;;;;;29.10;99.90;;;;;;5113084;28;20349;-80
2023/12/29 05:20:23;;;;;;;;;;;28.50;99.90;;;;;;5113092;28;19912;-79
2023/12/29 05:22:49;;;;;;;;;;;28.30;99.90;;;;;;5113049;28;19961;-78
2023/12/29 05:25:16;;;;;;;;;;;28.00;99.90;;;;;;5112909;28;19911;-78
2023/12/29 05:27:43;;;;;;;;;;;27.80;99.90;;;;;;5113141;28;19908;-79
2023/12/29 05:30:10;;;;;;;;;;;27.50;99.90;;;;;;5112846;28;19969;-78
2023/12/29 05:32:37;;;;;;;;;;;27.50;99.90;;;;;;5115352;28;19908;-79
2023/12/29 05:35:04;;;;;;;;;;;27.40;99.90;;;;;;5117249;28;19916;-79
2023/12/29 05:37:30;;;;;;;;;;;27.20;99.90;;;;;;5117207;28;19908;-79
2023/12/29 05:39:57;;;;;;;;;;;27.10;99.90;;;;;;5117247;28;19907;-79
2023/12/29 05:42:24;;;;;;;;;;;27.20;99.90;;;;;;5117313;28;20340;-77
2023/12/29 05:44:50;;;;;;;;;;;27.10;99.90;;;;;;5116996;28;19950;-78
2023/12/29 05:47:18;;;;;;;;;;;26.80;99.90;;;;;;5116876;28;19978;-74
2023/12/29 05:49:44;;;;;;;;;;;26.70;99.90;;;;;;5116601;28;19961;-79
2023/12/29 05:52:11;;;;;;;;;;;26.60;99.90;;;;;;5116665;28;19908;-73
2023/12/29 05:54:37;;;;;;;;;;;26.30;99.90;;;;;;5116485;28;19924;-77
2023/12/29 05:57:04;;;;;;;;;;;26.20;99.90;;;;;;5116862;28;20382;-73
2023/12/29 05:59:31;;;;;;;;;;;26.10;99.90;;;;;;5116825;28;19914;-72
2023/12/29 06:01:57;;;;;;;;;;;25.90;99.90;;;;;;5116787;28;19915;-79
2023/12/29 06:04:24;;;;;;;;;;;25.80;99.90;;;;;;5116487;28;19947;-73
2023/12/29 06:06:51;;;;;;;;;;;25.70;99.90;;;;;;5116597;28;19990;-78
2023/12/29 06:09:18;;;;;;;;;;;25.70;99.90;;;;;;5116605;28;19908;-79
2023/12/29 06:11:44;;;;;;;;;;;25.50;99.90;;;;;;5116300;28;19915;-77
2023/12/29 06:14:11;;;;;;;;;;;25.50;99.90;;;;;;5116711;28;20359;-80
2023/12/29 06:16:37;;;;;;;;;;;25.60;99.90;;;;;;5115933;28;20286;-81
2023/12/29 06:19:04;;;;;;;;;;;25.70;99.90;;;;;;5116089;28;19955;-79
2023/12/29 06:21:31;;;;;;;;;;;25.90;99.90;;;;;;5116234;28;19908;-80
2023/12/29 06:23:57;;;;;;;;;;;25.90;99.90;;;;;;5116404;28;19961;-79
2023/12/29 06:26:24;;;;;;;;;;;26.00;99.90;;;;;;5116227;28;19908;-73
2023/12/29 06:28:50;;;;;;;;;;;26.10;99.90;;;;;;5115957;28;19912;-80
2023/12/29 06:31:18;;;;;;;;;;;26.10;99.90;;;;;;5116290;28;19969;-81
2023/12/29 06:33:44;;;;;;;;;;;26.10;99.90;;;;;;5116029;28;20284;-80
2023/12/29 06:36:12;;;;;;;;;;;25.90;99.90;;;;;;5115932;28;20353;-81
2023/12/29 06:38:39;;;;;;;;;;;25.70;99.90;;;;;;5115996;28;19911;-81
2023/12/29 06:41:05;;;;;;;;;;;25.70;99.90;;;;;;5115935;28;19998;-80
2023/12/29 06:43:33;;;;;;;;;;;25.60;99.90;;;;;;5115542;28;19919;-79
2023/12/29 06:46:00;;;;;;;;;;;25.50;99.90;;;;;;5115616;28;19908;-70
2023/12/29 06:48:27;;;;;;;;;;;25.50;99.90;;;;;;5115957;28;19912;-78
2023/12/29 06:50:53;;;;;;;;;;;25.40;99.90;;;;;;5115724;28;19915;-82
2023/12/29 06:53:20;;;;;;;;;;;25.30;99.90;;;;;;5097328;28;19908;-82
2023/12/29 06:55:47;;;;;;;;;;;25.20;99.90;;;;;;5115447;28;19959;-79
2023/12/29 06:58:13;;;;;;;;;;;25.10;99.90;;;;;;5115344;28;19915;-80
2023/12/29 07:00:40;;;;;;;;;;;25.10;99.90;;;;;;5115643;28;20371;-72
2023/12/29 07:03:07;;;;;;;;;;;25.10;99.90;;;;;;5115510;28;20311;-76
2023/12/29 07:05:33;;;;;;;;;;;25.10;99.90;;;;;;5120465;28;20302;-71
2023/12/29 07:08:00;;;;;;;;;;;25.10;99.90;;;;;;5120501;28;19908;-67
2023/12/29 07:10:26;;;;;;;;;;;25.10;99.90;;;;;;5116091;28;19915;-75
2023/12/29 07:12:53;;;;;;;;;;;25.10;99.90;;;;;;5115222;28;19931;-66
2023/12/29 07:15:20;;;;;;;;;;;25.00;99.90;;;;;;5115346;28;19919;-69
2023/12/29 07:17:46;;;;;;;;;;;24.90;99.90;;;;;;5115394;28;19911;-70
2023/12/29 07:20:13;;;;;;;;;;;24.80;99.90;;;;;;5115587;28;19911;-69
2023/12/29 07:22:39;;;;;;;;;;;24.80;99.90;;;;;;5116290;28;19929;-73
2023/12/29 07:25:06;;;;;;;;;;;24.70;99.90;;;;;;5123662;28;20002;-70
2023/12/29 07:27:33;;;;;;;;;;;24.80;99.90;;;;;;5129440;28;20368;-71
2023/12/29 07:29:59;;;;;;;;;;;24.80;99.90;;;;;;5118601;28;19908;-73
2023/12/29 07:32:26;;;;;;;;;;;24.90;99.90;;;;;;5115191;28;20380;-76
2023/12/29 07:34:53;;;;;;;;;;;25.00;99.90;;;;;;5115034;28;19965;-80
2023/12/29 07:37:19;;;;;;;;;;;25.00;99.90;;;;;;5114976;28;20277;-80
2023/12/29 07:39:47;;;;;;;;;;;24.90;99.90;;;;;;5114938;28;19944;-75
2023/12/29 07:42:16;;;;;;;;;;;24.90;99.90;;;;;;5114723;28;19919;-76
2023/12/29 07:44:43;;;;;;;;;;;24.90;99.90;;;;;;5114754;28;19964;-74
2023/12/29 07:47:11;;;;;;;;;;;24.90;99.90;;;;;;5114373;28;19961;-79
2023/12/29 07:49:38;;;;;;;;;;;24.80;99.90;;;;;;5096266;28;19908;-80
2023/12/29 07:52:04;;;;;;;;;;;24.70;99.90;;;;;;5114638;28;19907;-80
2023/12/29 07:54:31;;;;;;;;;;;24.70;99.90;;;;;;5114330;28;19964;-74
2023/12/29 07:56:58;;;;;;;;;;;24.60;99.90;;;;;;5113626;28;20417;-80
2023/12/29 07:59:24;;;;;;;;;;;24.50;99.90;;;;;;5114225;28;19908;-78
2023/12/29 08:01:51;;;;;;;;;;;24.50;99.90;;;;;;5114138;28;19935;-80
2023/12/29 08:04:18;;;;;;;;;;;24.50;99.90;;;;;;5114114;28;20368;-81
2023/12/29 08:06:44;;;;;;;;;;;24.50;99.90;;;;;;5114245;28;19908;-79
2023/12/29 08:09:11;;;;;;;;;;;24.50;99.90;;;;;;5114301;28;19969;-81
2023/12/29 08:11:38;;;;;;;;;;;24.60;99.90;;;;;;5114232;28;19953;-80
2023/12/29 08:14:06;;;;;;;;;;;24.60;99.90;;;;;;5114094;28;19919;-71
2023/12/29 08:16:33;;;;;;;;;;;24.60;99.90;;;;;;5114017;28;20007;-72
2023/12/29 08:18:59;;;;;;;;;;;24.50;99.90;;;;;;5113694;28;20010;-75
2023/12/29 08:21:26;;;;;;;;;;;24.50;99.90;;;;;;5113836;28;20005;-69
2023/12/29 08:23:52;;;;;;;;;;;24.40;99.90;;;;;;5113501;28;19912;-71
2023/12/29 08:26:19;;;;;;;;;;;24.40;99.90;;;;;;5110976;28;20128;-72
2023/12/29 08:28:46;;;;;;;;;;;24.30;99.90;;;;;;5100667;28;19908;-67
2023/12/29 08:31:13;;;;;;;;;;;24.20;99.90;;;;;;5104417;28;19958;-71
2023/12/29 08:33:39;;;;;;;;;;;24.20;99.90;;;;;;5106771;28;19912;-69
2023/12/29 08:36:06;;;;;;;;;;;24.20;99.90;;;;;;5105829;28;19965;-70
2023/12/29 08:38:33;;;;;;;;;;;24.10;99.90;;;;;;5105487;28;19955;-70
2023/12/29 08:41:00;;;;;;;;;;;24.10;99.90;;;;;;5101835;28;19918;-64
2023/12/29 08:43:27;;;;;;;;;;;24.20;99.90;;;;;;5093171;28;19991;-69
2023/12/29 08:45:54;;;;;;;;;;;24.20;99.90;;;;;;5093040;28;19939;-66
2023/12/29 08:48:20;;;;;;;;;;;24.20;99.90;;;;;;5092982;28;19908;-65
2023/12/29 08:50:47;;;;;;;;;;;24.20;99.90;;;;;;5092895;28;19908;-63
2023/12/29 08:53:14;;;;;;;;;;;24.30;99.90;;;;;;5092534;28;19908;-64
2023/12/29 08:55:40;;;;;;;;;;;24.20;99.90;;;;;;5094365;28;20450;-68
2023/12/29 08:58:08;;;;;;;;;;;24.20;99.90;;;;;;5104458;28;19908;-64
2023/12/29 09:00:34;;;;;;;;;;;24.20;99.90;;;;;;5113069;28;19908;-66
2023/12/29 09:03:01;;;;;;;;;;;24.20;99.90;;;;;;5113145;28;20327;-65
2023/12/29 09:05:27;;;;;;;;;;;24.10;99.90;;;;;;5113253;28;19908;-67
2023/12/29 09:07:54;;;;;;;;;;;24.00;99.90;;;;;;5112716;28;19968;-66
2023/12/29 09:10:22;;;;;;;;;;;24.00;99.90;;;;;;5113074;28;19951;-64
2023/12/29 09:12:49;;;;;;;;;;;23.90;99.90;;;;;;5112954;28;19915;-66
2023/12/29 09:15:16;;;;;;;;;;;23.90;99.90;;;;;;5112835;28;19919;-70
2023/12/29 09:17:43;;;;;;;;;;;23.90;99.90;;;;;;5112911;28;19911;-67
2023/12/29 09:20:10;;;;;;;;;;;23.80;99.90;;;;;;5113184;28;19912;-69
2023/12/29 09:22:39;;;;;;;;;;;23.80;99.90;;;;;;5113010;28;19908;-65
2023/12/29 09:25:06;;;;;;;;;;;23.80;99.90;;;;;;5112864;28;19991;-70
2023/12/29 09:27:32;;;;;;;;;;;23.70;99.90;;;;;;5112940;28;19943;-71
2023/12/29 09:29:59;;;;;;;;;;;23.70;99.90;;;;;;5113010;28;20356;-69
2023/12/29 09:32:26;;;;;;;;;;;23.60;99.90;;;;;;5112478;28;19908;-67
2023/12/29 09:34:52;;;;;;;;;;;23.60;99.90;;;;;;5104553;28;19916;-67
2023/12/29 09:37:19;;;;;;;;;;;23.60;99.90;;;;;;5092606;28;20361;-68
2023/12/29 09:39:45;;;;;;;;;;;23.60;99.90;;;;;;5092436;28;19915;-65
2023/12/29 09:42:16;;;;;;;;;;;23.60;99.90;;;;;;5092744;28;19919;-66
2023/12/29 09:44:43;;;;;;;;;;;23.50;99.90;;;;;;5092563;28;20287;-68
2023/12/29 09:47:11;;;;;;;;;;;23.50;99.90;;;;;;5092982;28;19914;-67
2023/12/29 09:49:41;;;;;;;;;;;23.50;99.90;;;;;;5092309;28;19909;-74
2023/12/29 09:52:09;;;;;;;;;;;23.50;99.90;;;;;;5092166;28;19908;-69
2023/12/29 09:54:37;;;;;;;;;;;23.50;99.90;;;;;;5092346;28;21374;-68
2023/12/29 09:57:06;;;;;;;;;;;23.50;99.90;;;;;;5103845;28;20020;-63
2023/12/29 09:59:36;;;;;;;;;;;23.40;99.90;;;;;;5092452;28;20323;-66
2023/12/29 10:02:04;;;;;;;;;;;23.30;99.90;;;;;;5091988;28;19912;-73
2023/12/29 10:04:32;;;;;;;;;;;23.40;99.90;;;;;;5092090;28;19948;-66
2023/12/29 10:07:06;;;;;;;;;;;23.40;99.90;;;;;;5092121;28;19908;-68
2023/12/29 10:09:34;;;;;;;;;;;23.40;99.90;;;;;;5091818;28;19908;-67
2023/12/29 10:12:05;;;;;;;;;;;23.30;99.90;;;;;;5091910;28;19931;-73
2023/12/29 10:14:45;;;;;;;;;;;23.30;99.90;;;;;;5092026;28;19909;-66
2023/12/29 10:17:31;;;;;;;;;;;23.40;99.90;;;;;;5091895;28;19916;-66
2023/12/29 10:20:21;;;;;;;;;;;23.40;99.90;;;;;;5083671;28;20399;-66
2023/12/29 10:22:57;;;;;;;;;;;23.40;99.90;;;;;;5087316;28;20353;-68
2023/12/29 10:25:23;;;;;;;;;;;23.40;99.90;;;;;;5095752;28;20007;-66
2023/12/29 10:27:50;;;;;;;;;;;23.40;99.90;;;;;;5095913;28;19912;-65
2023/12/29 10:30:17;;;;;;;;;;;23.40;99.90;;;;;;5099061;28;19912;-65
2023/12/29 10:32:49;;;;;;;;;;;23.40;99.90;;;;;;5098667;28;19915;-67
2023/12/29 10:35:15;;;;;;;;;;;23.40;99.90;;;;;;5098258;28;19926;-68
2023/12/29 10:37:42;;;;;;;;;;;23.30;99.90;;;;;;5104611;28;19912;-65
2023/12/29 10:40:09;;;;;;;;;;;23.40;99.90;;;;;;5094111;28;19927;-65
2023/12/29 10:42:35;;;;;;;;;;;23.40;99.90;;;;;;5089494;28;19912;-67
2023/12/29 10:45:09;;;;;;;;;;;23.30;99.90;;;;;;5093630;28;19912;-66
2023/12/29 10:47:36;;;;;;;;;;;23.30;99.90;;;;;;5095381;28;19951;-66
2023/12/29 10:50:03;;;;;;;;;;;23.30;99.90;;;;;;5103008;28;19919;-67
2023/12/29 10:52:31;;;;;;;;;;;23.10;99.90;;;;;;5095184;28;19908;-67
2023/12/29 10:55:07;;;;;;;;;;;23.00;99.90;;;;;;5094805;28;20284;-64
2023/12/29 10:57:34;;;;;;;;;;;23.00;99.90;;;;;;5095177;28;19931;-64
2023/12/29 11:00:01;;;;;;;;;;;22.90;99.90;;;;;;5095068;28;19908;-68
2023/12/29 11:02:32;;;;;;;;;;;23.00;99.90;;;;;;5094679;28;19908;-65
2023/12/29 11:05:05;;;;;;;;;;;23.00;99.90;;;;;;5094745;28;19915;-66
2023/12/29 11:07:33;;;;;;;;;;;22.90;99.90;;;;;;5094904;28;19915;-65
2023/12/29 11:10:03;;;;;;;;;;;23.00;99.90;;;;;;5094724;28;19916;-66
2023/12/29 11:12:31;;;;;;;;;;;23.00;99.90;;;;;;5094278;28;19914;-67
2023/12/29 11:14:58;;;;;;;;;;;22.90;99.90;;;;;;5094426;28;19908;-67
2023/12/29 11:17:26;;;;;;;;;;;23.00;99.90;;;;;;5096895;28;19915;-67
2023/12/29 11:19:53;;;;;;;;;;;23.00;99.90;;;;;;5094331;28;19923;-67
2023/12/29 11:22:20;;;;;;;;;;;23.00;99.90;;;;;;5107180;28;20273;-66
2023/12/29 11:24:47;;;;;;;;;;;23.00;99.90;;;;;;5114797;28;19915;-67
2023/12/29 11:27:14;;;;;;;;;;;23.00;99.90;;;;;;5110748;28;20013;-68
2023/12/29 11:29:42;;;;;;;;;;;23.00;99.90;;;;;;5094394;28;20069;-73
2023/12/29 11:32:12;;;;;;;;;;;22.90;99.90;;;;;;5094163;28;19908;-69
2023/12/29 11:34:46;;;;;;;;;;;22.90;99.90;;;;;;5094177;28;19916;-66
2023/12/29 11:37:30;;;;;;;;;;;22.90;99.90;;;;;;5094293;28;19920;-69
2023/12/29 11:40:00;;;;;;;;;;;22.90;99.90;;;;;;5103224;28;19991;-67
2023/12/29 11:42:33;;;;;;;;;;;22.90;99.90;;;;;;5094032;28;19908;-66
2023/12/29 11:45:19;;;;;;;;;;;22.90;99.90;;;;;;5094179;28;19990;-68
2023/12/29 11:47:52;;;;;;;;;;;22.90;99.90;;;;;;5086085;28;19926;-68
2023/12/29 11:50:27;;;;;;;;;;;22.90;99.90;;;;;;5111154;28;19908;-70
2023/12/29 11:52:53;;;;;;;;;;;22.90;99.90;;;;;;5114651;28;19947;-67
2023/12/29 11:55:21;;;;;;;;;;;22.80;99.90;;;;;;5114409;28;19967;-68
2023/12/29 11:57:48;;;;;;;;;;;22.80;99.90;;;;;;5104104;28;19909;-66
2023/12/29 12:00:16;;;;;;;;;;;22.80;99.90;;;;;;5094032;28;19919;-67
2023/12/29 12:02:43;;;;;;;;;;;22.70;99.90;;;;;;5099139;28;19965;-67
2023/12/29 12:05:12;;;;;;;;;;;22.80;99.90;;;;;;5093297;28;19912;-67
2023/12/29 12:07:42;;;;;;;;;;;22.80;99.90;;;;;;5093673;28;19943;-67
2023/12/29 12:10:33;;;;;;;;;;;22.70;99.90;;;;;;5093700;28;19908;-66
2023/12/29 12:12:59;;;;;;;;;;;22.70;99.90;;;;;;5093542;28;19922;-67
2023/12/29 12:15:29;;;;;;;;;;;22.70;99.90;;;;;;5093778;28;19916;-66
2023/12/29 12:17:56;;;;;;;;;;;22.60;99.90;;;;;;5093632;28;19915;-68
2023/12/29 12:20:23;;;;;;;;;;;22.60;99.90;;;;;;5093788;28;19908;-68
2023/12/29 12:22:56;;;;;;;;;;;22.60;99.90;;;;;;5093366;28;19915;-67
2023/12/29 12:25:26;;;;;;;;;;;22.50;99.90;;;;;;5093417;28;19920;-68
2023/12/29 12:27:53;;;;;;;;;;;22.50;99.90;;;;;;5093585;28;19904;-67
2023/12/29 12:30:20;;;;;;;;;;;22.40;99.90;;;;;;5106588;28;19919;-68
2023/12/29 12:32:57;;;;;;;;;;;22.40;99.90;;;;;;5113347;28;20348;-67
2023/12/29 12:35:26;;;;;;;;;;;22.40;99.90;;;;;;5113542;28;19916;-67
2023/12/29 12:38:08;;;;;;;;;;;22.30;99.90;;;;;;5113959;28;20012;-71
2023/12/29 12:40:35;;;;;;;;;;;22.30;99.90;;;;;;5113515;28;20427;-68
2023/12/29 12:43:03;;;;;;;;;;;22.20;99.90;;;;;;5102233;28;20006;-69
2023/12/29 12:45:33;;;;;;;;;;;22.20;99.90;;;;;;5093159;28;20387;-67
2023/12/29 12:48:09;;;;;;;;;;;22.20;99.90;;;;;;5092704;28;19916;-68
2023/12/29 12:50:36;;;;;;;;;;;22.10;99.90;;;;;;5093157;28;20319;-68
2023/12/29 12:53:08;;;;;;;;;;;22.00;99.90;;;;;;5092913;28;19916;-68
2023/12/29 12:55:35;;;;;;;;;;;22.00;99.90;;;;;;5092778;28;19920;-67
2023/12/29 12:58:01;;;;;;;;;;;22.00;99.90;;;;;;5093039;28;19958;-70
2023/12/29 13:00:29;;;;;;;;;;;21.90;99.90;;;;;;5093222;28;19960;-67
2023/12/29 13:02:56;;;;;;;;;;;21.90;99.90;;;;;;5093034;28;19961;-68
2023/12/29 13:05:23;;;;;;;;;;;21.80;99.90;;;;;;5092975;28;19919;-68
2023/12/29 13:07:49;;;;;;;;;;;21.80;99.90;;;;;;5093033;28;20411;-67
2023/12/29 13:10:16;;;;;;;;;;;21.80;99.90;;;;;;5093195;28;20304;-68
2023/12/29 13:12:52;;;;;;;;;;;21.80;99.90;;;;;;5093051;28;20620;-67
2023/12/29 13:15:19;;;;;;;;;;;21.70;99.90;;;;;;5112224;28;20015;-69
2023/12/29 13:17:55;;;;;;;;;;;21.70;99.90;;;;;;5112904;28;19976;-67
2023/12/29 13:20:22;;;;;;;;;;;21.70;99.90;;;;;;5112923;28;19908;-69
2023/12/29 13:22:51;;;;;;;;;;;21.70;99.90;;;;;;5108717;28;20402;-67
2023/12/29 13:25:24;;;;;;;;;;;21.70;99.90;;;;;;5113053;28;19907;-67
2023/12/29 13:27:52;;;;;;;;;;;21.70;99.90;;;;;;5094264;28;19959;-69
2023/12/29 13:30:19;;;;;;;;;;;21.70;99.90;;;;;;5092392;28;19908;-67
2023/12/29 13:32:47;;;;;;;;;;;21.70;99.90;;;;;;5092246;28;19920;-69
2023/12/29 13:35:35;;;;;;;;;;;21.70;99.90;;;;;;5092588;28;19923;-69
2023/12/29 13:38:08;;;;;;;;;;;21.70;99.90;;;;;;5092602;28;19908;-69
2023/12/29 13:40:54;;;;;;;;;;;21.70;99.90;;;;;;5092533;28;19943;-69
2023/12/29 13:43:21;;;;;;;;;;;21.60;99.90;;;;;;5092552;28;19960;-68
2023/12/29 13:45:49;;;;;;;;;;;21.60;99.90;;;;;;5092568;28;19990;-67
2023/12/29 13:48:16;;;;;;;;;;;21.60;99.90;;;;;;5074322;28;19908;-67
2023/12/29 13:50:47;;;;;;;;;;;21.60;99.90;;;;;;5092399;28;19965;-67
2023/12/29 13:53:20;;;;;;;;;;;21.50;99.90;;;;;;5092270;28;19908;-68
2023/12/29 13:55:47;;;;;;;;;;;21.50;99.90;;;;;;5096069;28;19977;-67
2023/12/29 13:58:13;;;;;;;;;;;21.40;99.90;;;;;;5096629;28;20298;-67
2023/12/29 14:00:41;;;;;;;;;;;21.50;99.90;;;;;;5096065;28;20002;-68
2023/12/29 14:03:10;;;;;;;;;;;21.40;99.90;;;;;;5108219;28;19981;-66
2023/12/29 14:05:37;;;;;;;;;;;21.30;99.90;;;;;;5116288;28;20411;-68
2023/12/29 14:08:04;;;;;;;;;;;21.40;99.90;;;;;;5116485;28;19931;-67
2023/12/29 14:10:34;;;;;;;;;;;21.30;99.90;;;;;;5116468;28;19915;-67
2023/12/29 14:13:06;;;;;;;;;;;21.30;99.90;;;;;;5116070;28;20417;-67
2023/12/29 14:15:40;;;;;;;;;;;21.20;99.90;;;;;;5116137;28;20279;-68
2023/12/29 14:18:24;;;;;;;;;;;21.20;99.90;;;;;;5116246;28;19908;-66
2023/12/29 14:20:51;;;;;;;;;;;21.20;99.90;;;;;;5116300;28;20303;-66
2023/12/29 14:23:20;;;;;;;;;;;21.20;99.90;;;;;;5116095;28;19918;-69